Realitos, Texas
Current Conditions -  °F | °C
As of 3:35 PM on Thursday 23 Oct 2014 (Local Time) from KHBV Reporting Station
Scattered Clouds Scattered Clouds  
Wind Chill: 83°   Ceiling: Unl
Heat Index: 83°   Visibility: 10mi
Dew Point: 57°   Wind: 8mph
Humidity: 41%   Direction: 80°E
Pressure: 30.06"   Gusts: NA
Location:  27.45°N, 98.53°W
Report Text: KHBV 232035Z AUTO 08007KT 10SM SCT100 28/14 A3006 RMK AO2 T02830138 PWINO
Loading
Personal Weather Stations






























Interactive Weather Map
Tropical Storm Tracking
New forecast layout! Learn more

10-Day Weather Forecast

Advertisements
Track Severe Weather on mobile